sensor_id;sensor_type;location;lat;lon;timestamp;pressure;altitude;pressure_sealevel;temperature;humidity
12973;BME280;6551;51.056;9.466;2023-03-21T00:02:04;97724.09;;;9.73;72.82
12973;BME280;6551;51.056;9.466;2023-03-21T00:04:31;97726.53;;;9.75;73.03
12973;BME280;6551;51.056;9.466;2023-03-21T00:06:58;97720.19;;;9.82;72.67
12973;BME280;6551;51.056;9.466;2023-03-21T00:09:24;97721.72;;;9.59;72.92
12973;BME280;6551;51.056;9.466;2023-03-21T00:11:49;97711.75;;;9.48;72.75
12973;BME280;6551;51.056;9.466;2023-03-21T00:14:16;97713.34;;;9.55;73.01
12973;BME280;6551;51.056;9.466;2023-03-21T00:16:46;97714.38;;;9.54;72.72
12973;BME280;6551;51.056;9.466;2023-03-21T00:19:17;97714.97;;;9.63;73.10
12973;BME280;6551;51.056;9.466;2023-03-21T00:21:46;97714.13;;;9.69;72.66
12973;BME280;6551;51.056;9.466;2023-03-21T00:24:12;97720.28;;;9.63;73.16
12973;BME280;6551;51.056;9.466;2023-03-21T00:26:37;97727.44;;;9.56;73.47
12973;BME280;6551;51.056;9.466;2023-03-21T00:29:05;97718.00;;;9.66;72.86
12973;BME280;6551;51.056;9.466;2023-03-21T00:31:30;97716.56;;;9.64;72.53
12973;BME280;6551;51.056;9.466;2023-03-21T00:33:56;97712.50;;;9.61;72.83
12973;BME280;6551;51.056;9.466;2023-03-21T00:36:22;97719.47;;;9.56;73.21
12973;BME280;6551;51.056;9.466;2023-03-21T00:38:50;97714.31;;;9.67;73.01
12973;BME280;6551;51.056;9.466;2023-03-21T00:41:16;97717.84;;;9.99;71.53
12973;BME280;6551;51.056;9.466;2023-03-21T00:43:42;97715.34;;;10.04;71.60
12973;BME280;6551;51.056;9.466;2023-03-21T00:46:09;97704.88;;;10.16;71.67
12973;BME280;6551;51.056;9.466;2023-03-21T00:48:34;97694.97;;;9.91;72.03
12973;BME280;6551;51.056;9.466;2023-03-21T00:51:09;97707.22;;;9.99;72.54
12973;BME280;6551;51.056;9.466;2023-03-21T00:53:37;97704.28;;;10.07;72.07
12973;BME280;6551;51.056;9.466;2023-03-21T00:56:04;97701.53;;;10.27;71.49
12973;BME280;6551;51.056;9.466;2023-03-21T00:58:32;97699.75;;;10.14;71.72
12973;BME280;6551;51.056;9.466;2023-03-21T01:00:57;97701.53;;;9.89;72.13
12973;BME280;6551;51.056;9.466;2023-03-21T01:03:23;97691.16;;;10.19;71.14
12973;BME280;6551;51.056;9.466;2023-03-21T01:05:53;97691.94;;;10.19;71.53
12973;BME280;6551;51.056;9.466;2023-03-21T01:08:35;97683.66;;;10.34;70.47
12973;BME280;6551;51.056;9.466;2023-03-21T01:11:10;97690.81;;;10.33;70.77
12973;BME280;6551;51.056;9.466;2023-03-21T01:13:35;97682.78;;;10.09;71.50
12973;BME280;6551;51.056;9.466;2023-03-21T01:16:04;97691.97;;;9.75;72.76
12973;BME280;6551;51.056;9.466;2023-03-21T01:18:34;97689.19;;;9.63;73.18
12973;BME280;6551;51.056;9.466;2023-03-21T01:21:05;97683.06;;;9.63;73.11
12973;BME280;6551;51.056;9.466;2023-03-21T01:23:32;97690.81;;;9.64;73.35
12973;BME280;6551;51.056;9.466;2023-03-21T01:25:58;97692.84;;;9.69;73.73
12973;BME280;6551;51.056;9.466;2023-03-21T01:28:28;97688.44;;;9.87;73.11
12973;BME280;6551;51.056;9.466;2023-03-21T01:30:56;97698.78;;;9.71;73.92
12973;BME280;6551;51.056;9.466;2023-03-21T01:33:22;97681.72;;;9.85;73.09
12973;BME280;6551;51.056;9.466;2023-03-21T01:35:49;97687.53;;;10.00;72.19
12973;BME280;6551;51.056;9.466;2023-03-21T01:38:17;97692.00;;;10.06;72.75
12973;BME280;6551;51.056;9.466;2023-03-21T01:40:45;97689.38;;;9.99;72.00
12973;BME280;6551;51.056;9.466;2023-03-21T01:43:33;97680.88;;;10.22;71.64
12973;BME280;6551;51.056;9.466;2023-03-21T01:51:43;97684.78;;;10.44;70.89
12973;BME280;6551;51.056;9.466;2023-03-21T01:54:17;97681.09;;;9.83;72.40
12973;BME280;6551;51.056;9.466;2023-03-21T01:56:50;97678.25;;;9.78;72.98
12973;BME280;6551;51.056;9.466;2023-03-21T01:59:49;97678.41;;;9.89;73.09
12973;BME280;6551;51.056;9.466;2023-03-21T02:02:24;97667.19;;;9.81;73.40
12973;BME280;6551;51.056;9.466;2023-03-21T02:04:52;97667.47;;;9.73;73.75
12973;BME280;6551;51.056;9.466;2023-03-21T02:07:32;97670.13;;;10.04;73.36
12973;BME280;6551;51.056;9.466;2023-03-21T02:10:09;97658.03;;;10.08;73.02
12973;BME280;6551;51.056;9.466;2023-03-21T02:12:35;97659.38;;;9.92;73.04
12973;BME280;6551;51.056;9.466;2023-03-21T02:15:02;97650.56;;;9.92;72.67
12973;BME280;6551;51.056;9.466;2023-03-21T02:26:53;97636.56;;;9.72;74.26
12973;BME280;6551;51.056;9.466;2023-03-21T02:36:16;97618.53;;;9.80;73.48
12973;BME280;6551;51.056;9.466;2023-03-21T02:41:49;97629.50;;;9.90;72.90
12973;BME280;6551;51.056;9.466;2023-03-21T02:47:12;97630.50;;;9.96;73.53
12973;BME280;6551;51.056;9.466;2023-03-21T02:50:20;97628.97;;;10.13;72.90
12973;BME280;6551;51.056;9.466;2023-03-21T02:52:48;97634.88;;;10.15;72.42
12973;BME280;6551;51.056;9.466;2023-03-21T02:55:29;97637.44;;;10.28;72.49
12973;BME280;6551;51.056;9.466;2023-03-21T02:57:58;97639.94;;;10.23;71.90
12973;BME280;6551;51.056;9.466;2023-03-21T03:00:32;97630.94;;;10.24;71.89
12973;BME280;6551;51.056;9.466;2023-03-21T03:02:59;97627.88;;;10.21;71.48
12973;BME280;6551;51.056;9.466;2023-03-21T03:05:30;97623.38;;;10.21;71.21
12973;BME280;6551;51.056;9.466;2023-03-21T03:22:53;97616.66;;;10.19;71.31
12973;BME280;6551;51.056;9.466;2023-03-21T03:25:27;97616.47;;;10.14;71.53
12973;BME280;6551;51.056;9.466;2023-03-21T03:27:55;97623.44;;;10.15;71.90
12973;BME280;6551;51.056;9.466;2023-03-21T03:30:25;97618.00;;;10.28;71.88
12973;BME280;6551;51.056;9.466;2023-03-21T03:32:58;97623.66;;;10.38;72.19
12973;BME280;6551;51.056;9.466;2023-03-21T03:35:29;97614.78;;;10.19;72.97
12973;BME280;6551;51.056;9.466;2023-03-21T03:37:58;97617.34;;;10.32;71.93
12973;BME280;6551;51.056;9.466;2023-03-21T03:40:38;97614.78;;;10.19;72.32
12973;BME280;6551;51.056;9.466;2023-03-21T03:43:19;97615.13;;;10.29;71.95
12973;BME280;6551;51.056;9.466;2023-03-21T03:45:55;97607.72;;;10.31;71.57
12973;BME280;6551;51.056;9.466;2023-03-21T03:48:36;97604.19;;;10.37;71.53
12973;BME280;6551;51.056;9.466;2023-03-21T03:51:16;97605.47;;;10.35;71.12
12973;BME280;6551;51.056;9.466;2023-03-21T03:54:05;97613.22;;;10.36;70.91
12973;BME280;6551;51.056;9.466;2023-03-21T03:56:32;97607.25;;;10.41;71.12
12973;BME280;6551;51.056;9.466;2023-03-21T03:59:02;97607.03;;;10.42;70.63
12973;BME280;6551;51.056;9.466;2023-03-21T04:01:32;97605.13;;;10.49;70.02
12973;BME280;6551;51.056;9.466;2023-03-21T04:03:59;97607.31;;;10.52;70.27
12973;BME280;6551;51.056;9.466;2023-03-21T04:06:27;97606.59;;;10.64;69.86
12973;BME280;6551;51.056;9.466;2023-03-21T04:08:55;97602.25;;;10.69;69.36
12973;BME280;6551;51.056;9.466;2023-03-21T04:11:21;97595.59;;;10.60;69.39
12973;BME280;6551;51.056;9.466;2023-03-21T04:13:46;97601.44;;;10.69;68.91
12973;BME280;6551;51.056;9.466;2023-03-21T04:16:12;97603.44;;;10.55;69.37
12973;BME280;6551;51.056;9.466;2023-03-21T04:18:39;97601.75;;;10.61;69.73
12973;BME280;6551;51.056;9.466;2023-03-21T04:21:11;97599.13;;;10.54;70.30
12973;BME280;6551;51.056;9.466;2023-03-21T04:23:38;97593.28;;;10.64;69.52
12973;BME280;6551;51.056;9.466;2023-03-21T04:26:05;97601.47;;;10.19;71.27
12973;BME280;6551;51.056;9.466;2023-03-21T04:28:33;97604.03;;;10.57;70.84
12973;BME280;6551;51.056;9.466;2023-03-21T04:31:06;97604.22;;;10.55;70.40
12973;BME280;6551;51.056;9.466;2023-03-21T04:33:32;97604.59;;;10.59;70.38
12973;BME280;6551;51.056;9.466;2023-03-21T04:36:05;97601.31;;;10.14;71.14
12973;BME280;6551;51.056;9.466;2023-03-21T04:38:35;97594.41;;;10.13;71.50
12973;BME280;6551;51.056;9.466;2023-03-21T04:41:02;97596.84;;;10.08;72.08
12973;BME280;6551;51.056;9.466;2023-03-21T04:43:29;97597.19;;;10.43;71.84
12973;BME280;6551;51.056;9.466;2023-03-21T04:45:57;97596.63;;;10.10;71.67
12973;BME280;6551;51.056;9.466;2023-03-21T04:48:22;97586.81;;;10.10;72.02
12973;BME280;6551;51.056;9.466;2023-03-21T04:50:50;97597.22;;;10.18;71.98
12973;BME280;6551;51.056;9.466;2023-03-21T04:53:16;97594.31;;;10.20;71.49
12973;BME280;6551;51.056;9.466;2023-03-21T04:55:42;97591.78;;;10.00;72.24
12973;BME280;6551;51.056;9.466;2023-03-21T04:58:08;97590.19;;;9.99;72.58
12973;BME280;6551;51.056;9.466;2023-03-21T05:00:33;97584.78;;;10.06;72.40
12973;BME280;6551;51.056;9.466;2023-03-21T05:03:04;97590.63;;;10.21;72.53
12973;BME280;6551;51.056;9.466;2023-03-21T05:05:36;97590.25;;;10.11;72.25
12973;BME280;6551;51.056;9.466;2023-03-21T05:08:04;97587.59;;;10.11;72.39
12973;BME280;6551;51.056;9.466;2023-03-21T05:10:32;97584.66;;;9.94;72.78
12973;BME280;6551;51.056;9.466;2023-03-21T05:12:58;97581.72;;;10.33;72.07
12973;BME280;6551;51.056;9.466;2023-03-21T05:15:24;97584.06;;;10.23;71.46
12973;BME280;6551;51.056;9.466;2023-03-21T05:17:50;97585.69;;;10.24;71.73
12973;BME280;6551;51.056;9.466;2023-03-21T05:20:15;97583.06;;;10.42;71.07
12973;BME280;6551;51.056;9.466;2023-03-21T05:22:42;97592.56;;;10.56;71.19
12973;BME280;6551;51.056;9.466;2023-03-21T05:25:11;97591.81;;;10.68;70.32
12973;BME280;6551;51.056;9.466;2023-03-21T05:27:38;97592.56;;;10.75;70.47
12973;BME280;6551;51.056;9.466;2023-03-21T05:30:16;97592.84;;;11.03;69.95
12973;BME280;6551;51.056;9.466;2023-03-21T05:32:42;97584.22;;;10.71;69.96
12973;BME280;6551;51.056;9.466;2023-03-21T05:35:08;97585.59;;;10.92;69.87
12973;BME280;6551;51.056;9.466;2023-03-21T05:37:34;97581.63;;;11.01;69.99
12973;BME280;6551;51.056;9.466;2023-03-21T05:40:00;97585.28;;;10.64;70.08
12973;BME280;6551;51.056;9.466;2023-03-21T05:42:28;97581.13;;;10.74;69.99
12973;BME280;6551;51.056;9.466;2023-03-21T05:44:56;97583.41;;;10.71;69.73
12973;BME280;6551;51.056;9.466;2023-03-21T05:47:24;97580.72;;;10.71;69.86
12973;BME280;6551;51.056;9.466;2023-03-21T05:49:50;97586.06;;;10.71;70.31
12973;BME280;6551;51.056;9.466;2023-03-21T05:52:15;97579.91;;;10.70;70.13
12973;BME280;6551;51.056;9.466;2023-03-21T05:54:41;97581.91;;;10.75;70.18
12973;BME280;6551;51.056;9.466;2023-03-21T05:57:07;97577.63;;;10.92;69.71
12973;BME280;6551;51.056;9.466;2023-03-21T05:59:33;97584.34;;;10.94;69.69
12973;BME280;6551;51.056;9.466;2023-03-21T06:01:58;97586.94;;;10.65;69.86
12973;BME280;6551;51.056;9.466;2023-03-21T06:04:24;97586.63;;;10.73;70.20
12973;BME280;6551;51.056;9.466;2023-03-21T06:06:52;97590.13;;;10.91;70.17
12973;BME280;6551;51.056;9.466;2023-03-21T06:09:20;97590.13;;;11.09;69.78
12973;BME280;6551;51.056;9.466;2023-03-21T06:11:50;97591.09;;;11.45;69.86
12973;BME280;6551;51.056;9.466;2023-03-21T06:14:16;97586.59;;;11.75;67.63
12973;BME280;6551;51.056;9.466;2023-03-21T06:16:43;97582.59;;;12.19;66.53
12973;BME280;6551;51.056;9.466;2023-03-21T06:19:09;97580.88;;;12.59;64.33
12973;BME280;6551;51.056;9.466;2023-03-21T06:21:35;97578.78;;;12.84;62.85
12973;BME280;6551;51.056;9.466;2023-03-21T06:24:01;97577.03;;;12.78;63.14
12973;BME280;6551;51.056;9.466;2023-03-21T06:26:29;97574.97;;;12.46;63.75
12973;BME280;6551;51.056;9.466;2023-03-21T06:28:54;97574.13;;;12.22;63.87
12973;BME280;6551;51.056;9.466;2023-03-21T06:31:22;97586.94;;;12.31;64.29
12973;BME280;6551;51.056;9.466;2023-03-21T06:33:50;97592.84;;;12.10;64.87
12973;BME280;6551;51.056;9.466;2023-03-21T06:36:16;97589.56;;;12.08;65.18
12973;BME280;6551;51.056;9.466;2023-03-21T06:38:44;97594.41;;;11.88;65.43
12973;BME280;6551;51.056;9.466;2023-03-21T06:41:12;97587.97;;;11.78;66.47
12973;BME280;6551;51.056;9.466;2023-03-21T06:43:38;97590.91;;;11.76;66.86
12973;BME280;6551;51.056;9.466;2023-03-21T06:46:05;97598.31;;;11.74;67.09
12973;BME280;6551;51.056;9.466;2023-03-21T06:48:33;97598.66;;;11.78;67.12
12973;BME280;6551;51.056;9.466;2023-03-21T06:50:59;97601.47;;;11.83;66.75
12973;BME280;6551;51.056;9.466;2023-03-21T06:53:25;97602.25;;;11.83;67.56
12973;BME280;6551;51.056;9.466;2023-03-21T06:55:54;97596.94;;;11.83;67.80
12973;BME280;6551;51.056;9.466;2023-03-21T06:58:21;97595.44;;;11.87;68.19
12973;BME280;6551;51.056;9.466;2023-03-21T07:00:49;97591.63;;;11.95;68.48
12973;BME280;6551;51.056;9.466;2023-03-21T07:03:15;97602.63;;;11.87;68.14
12973;BME280;6551;51.056;9.466;2023-03-21T07:05:41;97608.69;;;11.94;68.15
12973;BME280;6551;51.056;9.466;2023-03-21T07:08:08;97600.47;;;12.07;67.32
12973;BME280;6551;51.056;9.466;2023-03-21T07:10:43;97606.72;;;12.01;67.10
12973;BME280;6551;51.056;9.466;2023-03-21T07:13:09;97605.25;;;12.05;67.32
12973;BME280;6551;51.056;9.466;2023-03-21T07:15:35;97604.44;;;11.74;67.89
12973;BME280;6551;51.056;9.466;2023-03-21T07:18:05;97600.00;;;11.68;68.18
12973;BME280;6551;51.056;9.466;2023-03-21T07:20:32;97607.59;;;11.83;68.39
12973;BME280;6551;51.056;9.466;2023-03-21T07:23:00;97609.72;;;11.93;67.92
12973;BME280;6551;51.056;9.466;2023-03-21T07:25:27;97608.13;;;12.03;68.30
12973;BME280;6551;51.056;9.466;2023-03-21T07:27:54;97603.69;;;11.97;67.94
12973;BME280;6551;51.056;9.466;2023-03-21T07:30:20;97602.88;;;11.85;68.03
12973;BME280;6551;51.056;9.466;2023-03-21T07:32:46;97597.75;;;11.84;67.99
12973;BME280;6551;51.056;9.466;2023-03-21T07:35:16;97588.81;;;11.78;68.58
12973;BME280;6551;51.056;9.466;2023-03-21T07:37:42;97594.88;;;11.85;68.50
12973;BME280;6551;51.056;9.466;2023-03-21T07:40:09;97588.06;;;12.12;67.80
12973;BME280;6551;51.056;9.466;2023-03-21T07:42:41;97580.28;;;12.22;67.92
12973;BME280;6551;51.056;9.466;2023-03-21T07:45:09;97582.28;;;12.39;67.69
12973;BME280;6551;51.056;9.466;2023-03-21T07:47:35;97580.06;;;12.36;67.32
12973;BME280;6551;51.056;9.466;2023-03-21T07:50:03;97579.81;;;12.72;67.04
12973;BME280;6551;51.056;9.466;2023-03-21T07:52:31;97576.00;;;12.79;66.45
12973;BME280;6551;51.056;9.466;2023-03-21T07:54:59;97571.31;;;12.86;65.62
12973;BME280;6551;51.056;9.466;2023-03-21T07:57:25;97580.72;;;12.89;65.56
12973;BME280;6551;51.056;9.466;2023-03-21T07:59:51;97577.84;;;12.90;65.51
12973;BME280;6551;51.056;9.466;2023-03-21T08:02:17;97575.09;;;12.62;65.10
12973;BME280;6551;51.056;9.466;2023-03-21T08:04:43;97580.28;;;12.80;66.57
12973;BME280;6551;51.056;9.466;2023-03-21T08:07:10;97580.06;;;12.82;66.25
12973;BME280;6551;51.056;9.466;2023-03-21T08:09:36;97579.44;;;12.91;65.79
12973;BME280;6551;51.056;9.466;2023-03-21T08:12:04;97565.31;;;12.91;65.76
12973;BME280;6551;51.056;9.466;2023-03-21T08:14:31;97579.22;;;12.93;65.15
12973;BME280;6551;51.056;9.466;2023-03-21T08:16:59;97563.41;;;12.91;65.67
12973;BME280;6551;51.056;9.466;2023-03-21T08:19:25;97572.06;;;13.22;65.54
12973;BME280;6551;51.056;9.466;2023-03-21T08:21:53;97563.59;;;13.25;65.47
12973;BME280;6551;51.056;9.466;2023-03-21T08:24:20;97563.16;;;13.73;64.53
12973;BME280;6551;51.056;9.466;2023-03-21T08:26:46;97576.88;;;13.76;63.81
12973;BME280;6551;51.056;9.466;2023-03-21T08:29:15;97572.59;;;14.25;62.86
12973;BME280;6551;51.056;9.466;2023-03-21T08:31:41;97569.78;;;14.32;61.65
12973;BME280;6551;51.056;9.466;2023-03-21T08:34:07;97567.59;;;14.45;61.79
12973;BME280;6551;51.056;9.466;2023-03-21T08:36:35;97575.22;;;14.37;62.00
12973;BME280;6551;51.056;9.466;2023-03-21T08:39:04;97572.81;;;14.35;62.16
12973;BME280;6551;51.056;9.466;2023-03-21T08:41:33;97568.00;;;14.37;62.90
12973;BME280;6551;51.056;9.466;2023-03-21T08:44:03;97570.25;;;14.29;61.60
12973;BME280;6551;51.056;9.466;2023-03-21T08:46:31;97571.78;;;14.41;61.73
12973;BME280;6551;51.056;9.466;2023-03-21T08:48:58;97562.69;;;14.26;61.65
12973;BME280;6551;51.056;9.466;2023-03-21T08:51:24;97563.84;;;14.30;61.62
12973;BME280;6551;51.056;9.466;2023-03-21T08:53:49;97563.66;;;14.53;61.17
12973;BME280;6551;51.056;9.466;2023-03-21T08:56:16;97562.69;;;14.59;60.81
12973;BME280;6551;51.056;9.466;2023-03-21T08:58:43;97562.72;;;14.81;60.23
12973;BME280;6551;51.056;9.466;2023-03-21T09:01:09;97565.63;;;14.96;60.32
12973;BME280;6551;51.056;9.466;2023-03-21T09:03:37;97573.22;;;14.82;60.50
12973;BME280;6551;51.056;9.466;2023-03-21T09:06:03;97574.28;;;14.64;60.52
12973;BME280;6551;51.056;9.466;2023-03-21T09:08:30;97569.34;;;14.23;61.26
12973;BME280;6551;51.056;9.466;2023-03-21T09:10:57;97569.31;;;14.35;61.93
12973;BME280;6551;51.056;9.466;2023-03-21T09:13:25;97564.13;;;14.67;61.47
12973;BME280;6551;51.056;9.466;2023-03-21T09:15:54;97562.56;;;14.32;62.08
12973;BME280;6551;51.056;9.466;2023-03-21T09:18:24;97568.78;;;13.88;63.36
12973;BME280;6551;51.056;9.466;2023-03-21T09:21:09;97570.41;;;14.22;62.91
12973;BME280;6551;51.056;9.466;2023-03-21T09:23:40;97567.31;;;14.47;63.03
12973;BME280;6551;51.056;9.466;2023-03-21T09:26:07;97556.69;;;14.69;61.59
12973;BME280;6551;51.056;9.466;2023-03-21T09:28:35;97560.47;;;14.94;61.88
12973;BME280;6551;51.056;9.466;2023-03-21T09:31:04;97568.22;;;15.34;59.70
12973;BME280;6551;51.056;9.466;2023-03-21T09:33:33;97557.13;;;15.47;59.77
12973;BME280;6551;51.056;9.466;2023-03-21T09:36:01;97560.66;;;15.31;60.16
12973;BME280;6551;51.056;9.466;2023-03-21T09:38:30;97560.63;;;15.74;60.16
12973;BME280;6551;51.056;9.466;2023-03-21T09:44:53;97547.75;;;16.40;58.40
12973;BME280;6551;51.056;9.466;2023-03-21T09:47:30;97549.06;;;16.32;59.39
12973;BME280;6551;51.056;9.466;2023-03-21T09:50:34;97544.88;;;16.15;59.48
12973;BME280;6551;51.056;9.466;2023-03-21T09:55:38;97551.19;;;15.23;60.52
12973;BME280;6551;51.056;9.466;2023-03-21T09:58:25;97548.97;;;15.15;60.86
12973;BME280;6551;51.056;9.466;2023-03-21T10:01:17;97540.06;;;15.10;61.41
12973;BME280;6551;51.056;9.466;2023-03-21T10:04:03;97558.56;;;15.11;60.97
12973;BME280;6551;51.056;9.466;2023-03-21T10:06:35;97559.47;;;14.57;62.27
12973;BME280;6551;51.056;9.466;2023-03-21T10:09:19;97551.16;;;14.25;63.00
12973;BME280;6551;51.056;9.466;2023-03-21T10:12:01;97558.31;;;14.20;64.07
12973;BME280;6551;51.056;9.466;2023-03-21T10:14:36;97555.41;;;14.54;64.19
12973;BME280;6551;51.056;9.466;2023-03-21T10:22:40;97544.28;;;13.96;64.61
12973;BME280;6551;51.056;9.466;2023-03-21T10:25:07;97559.25;;;13.80;64.94
12973;BME280;6551;51.056;9.466;2023-03-21T10:27:37;97551.53;;;13.67;64.70
12973;BME280;6551;51.056;9.466;2023-03-21T10:30:06;97551.06;;;13.70;65.48
12973;BME280;6551;51.056;9.466;2023-03-21T10:32:36;97552.59;;;13.66;65.20
12973;BME280;6551;51.056;9.466;2023-03-21T10:35:03;97550.94;;;13.77;65.48
12973;BME280;6551;51.056;9.466;2023-03-21T10:37:30;97547.59;;;13.86;65.16
12973;BME280;6551;51.056;9.466;2023-03-21T10:39:58;97544.25;;;13.63;65.39
12973;BME280;6551;51.056;9.466;2023-03-21T10:42:28;97545.88;;;13.80;65.14
12973;BME280;6551;51.056;9.466;2023-03-21T10:44:57;97549.22;;;13.71;65.62
12973;BME280;6551;51.056;9.466;2023-03-21T10:47:33;97553.13;;;13.80;65.62
12973;BME280;6551;51.056;9.466;2023-03-21T10:50:05;97550.22;;;13.53;66.13
12973;BME280;6551;51.056;9.466;2023-03-21T10:52:32;97558.84;;;13.88;66.23
12973;BME280;6551;51.056;9.466;2023-03-21T10:55:32;97556.31;;;14.10;65.40
12973;BME280;6551;51.056;9.466;2023-03-21T10:58:24;97554.47;;;13.66;66.35
12973;BME280;6551;51.056;9.466;2023-03-21T11:01:06;97558.50;;;14.13;66.05
12973;BME280;6551;51.056;9.466;2023-03-21T11:03:39;97551.88;;;13.71;66.24
12973;BME280;6551;51.056;9.466;2023-03-21T11:06:35;97561.69;;;13.65;67.32
12973;BME280;6551;51.056;9.466;2023-03-21T11:09:56;97551.59;;;13.56;67.31
12973;BME280;6551;51.056;9.466;2023-03-21T11:12:13;97559.56;;;13.67;68.10
12973;BME280;6551;51.056;9.466;2023-03-21T11:14:46;97561.03;;;13.75;67.22
12973;BME280;6551;51.056;9.466;2023-03-21T11:17:21;97557.09;;;13.94;66.46
12973;BME280;6551;51.056;9.466;2023-03-21T11:19:56;97560.97;;;13.86;66.65
12973;BME280;6551;51.056;9.466;2023-03-21T11:22:28;97555.69;;;13.91;66.83
12973;BME280;6551;51.056;9.466;2023-03-21T11:25:00;97563.97;;;13.73;67.17
12973;BME280;6551;51.056;9.466;2023-03-21T11:27:27;97551.31;;;13.69;66.86
12973;BME280;6551;51.056;9.466;2023-03-21T11:29:56;97547.97;;;13.33;67.32
12973;BME280;6551;51.056;9.466;2023-03-21T11:32:36;97553.78;;;13.30;68.89
12973;BME280;6551;51.056;9.466;2023-03-21T11:35:41;97548.00;;;13.22;69.07
12973;BME280;6551;51.056;9.466;2023-03-21T11:41:00;97553.31;;;13.33;68.71
12973;BME280;6551;51.056;9.466;2023-03-21T11:43:31;97547.47;;;13.48;68.39
12973;BME280;6551;51.056;9.466;2023-03-21T11:48:39;97542.44;;;13.52;68.36
12973;BME280;6551;51.056;9.466;2023-03-21T11:51:23;97544.81;;;13.08;68.93
12973;BME280;6551;51.056;9.466;2023-03-21T11:54:03;97540.94;;;13.44;69.50
12973;BME280;6551;51.056;9.466;2023-03-21T12:00:01;97536.41;;;13.16;70.04
12973;BME280;6551;51.056;9.466;2023-03-21T12:05:32;97526.63;;;13.50;69.79
12973;BME280;6551;51.056;9.466;2023-03-21T12:11:38;97518.59;;;13.50;71.08
12973;BME280;6551;51.056;9.466;2023-03-21T12:14:43;97520.66;;;13.31;70.64
12973;BME280;6551;51.056;9.466;2023-03-21T12:17:45;97528.06;;;13.13;72.15
12973;BME280;6551;51.056;9.466;2023-03-21T12:33:13;97505.72;;;13.80;73.80
12973;BME280;6551;51.056;9.466;2023-03-21T12:36:02;97507.09;;;13.66;74.45
12973;BME280;6551;51.056;9.466;2023-03-21T12:47:35;97502.41;;;13.73;75.05
12973;BME280;6551;51.056;9.466;2023-03-21T12:50:17;97498.44;;;13.76;75.53
12973;BME280;6551;51.056;9.466;2023-03-21T12:52:49;97501.81;;;13.10;78.46
12973;BME280;6551;51.056;9.466;2023-03-21T12:55:24;97496.94;;;12.95;78.24
12973;BME280;6551;51.056;9.466;2023-03-21T12:58:14;97491.38;;;12.97;78.78
12973;BME280;6551;51.056;9.466;2023-03-21T13:00:48;97490.44;;;12.51;80.15
12973;BME280;6551;51.056;9.466;2023-03-21T13:03:40;97492.44;;;12.84;80.30
12973;BME280;6551;51.056;9.466;2023-03-21T13:06:12;97495.06;;;12.56;81.46
12973;BME280;6551;51.056;9.466;2023-03-21T13:09:06;97488.91;;;13.35;79.64
12973;BME280;6551;51.056;9.466;2023-03-21T13:11:34;97494.34;;;13.40;79.64
12973;BME280;6551;51.056;9.466;2023-03-21T13:14:15;97484.00;;;13.60;78.42
12973;BME280;6551;51.056;9.466;2023-03-21T13:17:01;97483.91;;;13.55;79.46
12973;BME280;6551;51.056;9.466;2023-03-21T13:23:01;97487.09;;;13.85;78.85
12973;BME280;6551;51.056;9.466;2023-03-21T13:25:30;97478.75;;;13.98;77.96
12973;BME280;6551;51.056;9.466;2023-03-21T13:28:04;97480.03;;;13.79;78.21
12973;BME280;6551;51.056;9.466;2023-03-21T13:30:31;97478.31;;;13.40;79.78
12973;BME280;6551;51.056;9.466;2023-03-21T13:35:39;97477.28;;;13.01;81.16
12973;BME280;6551;51.056;9.466;2023-03-21T13:38:17;97468.91;;;13.09;81.30
12973;BME280;6551;51.056;9.466;2023-03-21T13:41:14;97466.34;;;13.03;81.06
12973;BME280;6551;51.056;9.466;2023-03-21T13:46:43;97460.19;;;12.74;80.93
12973;BME280;6551;51.056;9.466;2023-03-21T13:59:41;97445.09;;;12.79;81.54
12973;BME280;6551;51.056;9.466;2023-03-21T14:02:33;97449.84;;;12.38;82.40
12973;BME280;6551;51.056;9.466;2023-03-21T14:05:13;97445.31;;;12.38;83.29
12973;BME280;6551;51.056;9.466;2023-03-21T14:07:45;97437.31;;;12.26;82.86
12973;BME280;6551;51.056;9.466;2023-03-21T14:10:36;97433.38;;;12.69;81.46
12973;BME280;6551;51.056;9.466;2023-03-21T14:13:08;97424.63;;;12.85;80.57
12973;BME280;6551;51.056;9.466;2023-03-21T14:16:10;97428.00;;;12.41;82.12
12973;BME280;6551;51.056;9.466;2023-03-21T14:19:02;97426.94;;;12.42;83.05
12973;BME280;6551;51.056;9.466;2023-03-21T14:21:33;97421.09;;;12.56;82.56
12973;BME280;6551;51.056;9.466;2023-03-21T14:24:06;97425.50;;;12.62;82.51
12973;BME280;6551;51.056;9.466;2023-03-21T14:26:39;97414.97;;;12.44;82.50
12973;BME280;6551;51.056;9.466;2023-03-21T14:29:07;97412.47;;;12.38;82.65
12973;BME280;6551;51.056;9.466;2023-03-21T14:31:35;97413.19;;;12.10;83.35
12973;BME280;6551;51.056;9.466;2023-03-21T14:34:03;97409.06;;;12.42;82.41
12973;BME280;6551;51.056;9.466;2023-03-21T14:36:32;97406.66;;;12.29;82.70
12973;BME280;6551;51.056;9.466;2023-03-21T14:39:22;97400.59;;;12.45;82.46
12973;BME280;6551;51.056;9.466;2023-03-21T14:41:56;97403.38;;;12.39;81.86
12973;BME280;6551;51.056;9.466;2023-03-21T14:44:40;97410.03;;;12.64;81.68
12973;BME280;6551;51.056;9.466;2023-03-21T14:47:19;97392.81;;;12.72;81.71
12973;BME280;6551;51.056;9.466;2023-03-21T14:49:49;97391.00;;;12.61;82.04
12973;BME280;6551;51.056;9.466;2023-03-21T14:52:25;97397.97;;;12.62;82.32
12973;BME280;6551;51.056;9.466;2023-03-21T14:54:54;97405.25;;;12.66;81.70
12973;BME280;6551;51.056;9.466;2023-03-21T14:57:26;97396.25;;;12.84;80.67
12973;BME280;6551;51.056;9.466;2023-03-21T14:59:58;97394.78;;;12.76;80.45
12973;BME280;6551;51.056;9.466;2023-03-21T15:02:32;97404.53;;;12.82;80.63
12973;BME280;6551;51.056;9.466;2023-03-21T15:05:10;97396.06;;;12.46;81.68
12973;BME280;6551;51.056;9.466;2023-03-21T15:07:39;97383.38;;;12.53;82.91
12973;BME280;6551;51.056;9.466;2023-03-21T15:10:15;97386.31;;;13.08;80.47
12973;BME280;6551;51.056;9.466;2023-03-21T15:13:01;97385.66;;;12.89;80.66
12973;BME280;6551;51.056;9.466;2023-03-21T15:15:37;97394.69;;;12.43;81.66
12973;BME280;6551;51.056;9.466;2023-03-21T15:18:05;97390.94;;;12.44;82.80
12973;BME280;6551;51.056;9.466;2023-03-21T15:20:35;97389.25;;;12.38;82.14
12973;BME280;6551;51.056;9.466;2023-03-21T15:25:51;97383.53;;;11.71;84.97
12973;BME280;6551;51.056;9.466;2023-03-21T15:28:17;97389.97;;;11.52;86.47
12973;BME280;6551;51.056;9.466;2023-03-21T15:30:51;97384.69;;;11.99;86.30